Time;durP1;ratioP1;P1;durP2;ratioP2;P2;SDS_P1;SDS_P2;PMS_P1;PMS_P2;Temp;Humidity;BMP_temperature;BMP_pressure;BME280_temperature;BME280_humidity;BME280_pressure;Samples;Min_cycle;Max_cycle;Signal;HPM_P1;HPM_P2
2022/03/27 04:02:39;;;;;;;7.80;6.15;;;4.00;99.90;;;;;;4868092;29;20228;-68
2022/03/27 04:05:07;;;;;;;8.30;6.60;;;4.00;99.90;;;;;;4875749;29;20630;-68
2022/03/27 04:07:34;;;;;;;10.70;7.03;;;4.00;99.90;;;;;;4872623;29;20886;-67
2022/03/27 04:10:00;;;;;;;7.63;6.07;;;3.90;99.90;;;;;;4869065;29;20203;-68
2022/03/27 04:12:27;;;;;;;11.38;5.60;;;3.90;99.90;;;;;;4877422;29;20228;-67
2022/03/27 04:14:54;;;;;;;10.98;5.97;;;3.90;99.90;;;;;;4877747;29;20571;-67
2022/03/27 04:17:20;;;;;;;14.95;7.10;;;3.90;99.90;;;;;;4877596;29;20248;-67
2022/03/27 04:19:48;;;;;;;18.05;8.07;;;3.90;99.90;;;;;;4874849;29;20220;-66
2022/03/27 04:22:15;;;;;;;11.43;5.95;;;3.90;99.90;;;;;;4875605;29;20931;-67
2022/03/27 04:24:42;;;;;;;10.93;5.40;;;3.90;99.90;;;;;;4877765;29;20219;-67
2022/03/27 04:27:09;;;;;;;8.02;6.13;;;3.80;99.90;;;;;;4876411;29;20212;-67
2022/03/27 04:29:35;;;;;;;10.57;6.70;;;3.80;99.90;;;;;;4867910;29;20311;-67
2022/03/27 04:32:02;;;;;;;11.52;6.65;;;3.80;99.90;;;;;;4871662;29;20231;-68
2022/03/27 04:34:29;;;;;;;9.27;6.72;;;3.80;99.90;;;;;;4870495;29;20208;-67
2022/03/27 04:36:57;;;;;;;13.48;6.47;;;3.80;99.90;;;;;;4877370;29;20729;-67
2022/03/27 04:39:23;;;;;;;13.10;6.60;;;3.80;99.90;;;;;;4875100;29;20212;-67
2022/03/27 04:41:50;;;;;;;13.68;6.10;;;3.70;99.90;;;;;;4875634;29;20713;-67
2022/03/27 04:44:17;;;;;;;12.43;7.22;;;3.80;99.90;;;;;;4869577;29;20268;-67
2022/03/27 04:46:43;;;;;;;11.98;7.13;;;3.70;99.90;;;;;;4877721;29;20234;-67
2022/03/27 04:49:10;;;;;;;9.18;6.38;;;3.70;99.90;;;;;;4870478;29;20737;-67
2022/03/27 04:51:37;;;;;;;12.50;7.53;;;3.70;99.90;;;;;;4875092;29;20311;-67
2022/03/27 04:54:05;;;;;;;11.07;7.70;;;3.60;99.90;;;;;;4875710;29;20310;-67
2022/03/27 04:56:32;;;;;;;16.50;8.50;;;3.60;99.90;;;;;;4876077;29;20259;-67
2022/03/27 04:58:59;;;;;;;13.07;8.02;;;3.60;99.90;;;;;;4875139;29;20306;-67
2022/03/27 05:01:25;;;;;;;16.85;8.20;;;3.60;99.90;;;;;;4869751;29;20312;-67
2022/03/27 05:03:53;;;;;;;14.68;8.07;;;3.60;99.90;;;;;;4874042;29;20212;-67
2022/03/27 05:06:19;;;;;;;12.43;7.22;;;3.50;99.90;;;;;;4872870;29;20257;-66
2022/03/27 05:08:46;;;;;;;11.52;7.25;;;3.50;99.90;;;;;;4875096;29;20248;-67
2022/03/27 05:11:14;;;;;;;14.73;7.55;;;3.50;99.90;;;;;;4871345;29;20299;-66
2022/03/27 05:13:41;;;;;;;11.45;6.95;;;3.50;99.90;;;;;;4873047;29;20224;-66
2022/03/27 05:16:07;;;;;;;11.13;6.75;;;3.50;99.90;;;;;;4877552;29;20311;-66
2022/03/27 05:18:34;;;;;;;9.00;7.25;;;3.50;99.90;;;;;;4886231;29;20216;-66
2022/03/27 05:21:01;;;;;;;8.38;6.85;;;3.50;99.90;;;;;;4888005;29;20227;-66
2022/03/27 05:23:28;;;;;;;13.00;7.65;;;3.50;99.90;;;;;;4884861;29;20206;-66
2022/03/27 05:25:54;;;;;;;12.20;8.20;;;3.50;99.90;;;;;;4874842;29;20280;-67
2022/03/27 05:28:22;;;;;;;13.90;7.72;;;3.50;99.90;;;;;;4873417;29;20212;-67
2022/03/27 05:30:49;;;;;;;9.00;6.95;;;3.50;99.90;;;;;;4873843;29;20276;-66
2022/03/27 05:33:17;;;;;;;8.07;6.28;;;3.50;99.90;;;;;;4874453;29;20645;-66
2022/03/27 05:35:44;;;;;;;12.50;7.32;;;3.50;99.90;;;;;;4870674;29;20239;-66
2022/03/27 05:38:11;;;;;;;8.40;6.90;;;3.50;99.90;;;;;;4874885;29;20264;-66
2022/03/27 05:40:38;;;;;;;13.65;7.20;;;3.50;99.90;;;;;;4866655;29;20224;-67
2022/03/27 05:43:05;;;;;;;8.35;6.63;;;3.50;99.90;;;;;;4875168;29;20264;-69
2022/03/27 05:45:35;;;;;;;6.75;6.05;;;3.50;99.90;;;;;;4876501;29;20287;-69
2022/03/27 05:48:02;;;;;;;8.27;7.47;;;3.60;99.90;;;;;;4870286;29;20244;-69
2022/03/27 05:50:28;;;;;;;17.00;7.13;;;3.60;99.90;;;;;;4874253;29;20212;-69
2022/03/27 05:52:55;;;;;;;9.13;6.63;;;3.60;99.90;;;;;;4873262;29;20358;-69
2022/03/27 05:55:23;;;;;;;9.68;6.78;;;3.60;99.90;;;;;;4875885;29;20212;-68
2022/03/27 05:57:50;;;;;;;12.13;6.85;;;3.70;99.90;;;;;;4876191;29;20219;-68
2022/03/27 06:00:20;;;;;;;7.60;6.22;;;3.80;99.90;;;;;;4869183;29;20657;-68
2022/03/27 06:02:49;;;;;;;11.35;6.35;;;3.80;99.90;;;;;;4874988;29;20656;-68
2022/03/27 06:05:17;;;;;;;12.55;8.43;;;3.90;99.90;;;;;;4878178;29;20591;-69
2022/03/27 06:07:46;;;;;;;7.85;6.32;;;3.90;99.90;;;;;;4878095;29;20208;-68
2022/03/27 06:10:13;;;;;;;8.35;5.63;;;4.00;99.90;;;;;;4872895;29;20283;-67
2022/03/27 06:12:40;;;;;;;9.02;5.40;;;4.00;99.90;;;;;;4875422;29;20235;-68
2022/03/27 06:15:08;;;;;;;8.65;6.72;;;4.00;99.90;;;;;;4877159;29;20626;-69
2022/03/27 06:17:45;;;;;;;8.23;6.80;;;4.00;99.90;;;;;;4878194;29;20219;-68
2022/03/27 06:20:15;;;;;;;8.10;6.45;;;4.10;99.90;;;;;;4868052;29;20650;-69
2022/03/27 06:22:42;;;;;;;6.18;5.55;;;4.10;99.90;;;;;;4875626;29;20622;-68
2022/03/27 06:25:10;;;;;;;7.95;6.82;;;4.20;99.90;;;;;;4876149;29;20208;-67
2022/03/27 06:27:38;;;;;;;7.90;5.75;;;4.20;99.90;;;;;;4878547;29;20264;-68
2022/03/27 06:30:06;;;;;;;6.93;5.57;;;4.30;99.90;;;;;;4878088;29;20260;-68
2022/03/27 06:32:34;;;;;;;6.93;5.60;;;4.40;99.90;;;;;;4879193;29;20640;-68
2022/03/27 06:35:01;;;;;;;5.30;4.80;;;4.40;99.90;;;;;;4879015;29;20247;-68
2022/03/27 06:37:29;;;;;;;6.43;4.85;;;4.50;99.90;;;;;;4876341;29;20208;-68
2022/03/27 06:39:56;;;;;;;5.05;4.75;;;4.50;99.90;;;;;;4877809;29;20265;-69
2022/03/27 06:42:25;;;;;;;5.18;4.78;;;4.60;99.90;;;;;;4879490;29;20227;-68
2022/03/27 06:44:54;;;;;;;5.70;5.07;;;4.60;99.90;;;;;;4873457;29;20260;-68
2022/03/27 06:47:21;;;;;;;6.35;5.55;;;4.60;99.90;;;;;;4876794;29;20208;-68
2022/03/27 06:49:48;;;;;;;5.93;5.40;;;4.70;99.90;;;;;;4877141;29;20312;-69
2022/03/27 06:52:17;;;;;;;5.65;5.03;;;4.70;99.90;;;;;;4878544;29;20292;-68
2022/03/27 06:54:46;;;;;;;6.82;5.38;;;4.80;99.90;;;;;;4873682;29;20304;-68
2022/03/27 06:57:14;;;;;;;6.63;5.90;;;4.80;99.90;;;;;;4877475;29;20211;-69
2022/03/27 07:05:12;;;;;;;5.50;4.97;;;5.00;99.90;;;;;;4871155;29;20207;-68
2022/03/27 07:07:39;;;;;;;4.35;4.10;;;5.10;99.90;;;;;;4877875;29;20559;-68
2022/03/27 07:10:07;;;;;;;6.13;5.18;;;5.10;99.90;;;;;;4870262;29;20257;-67
2022/03/27 07:12:34;;;;;;;5.20;4.72;;;5.30;99.90;;;;;;4884826;29;20239;-68
2022/03/27 07:15:01;;;;;;;5.10;4.72;;;5.30;99.90;;;;;;4887414;29;20220;-67
2022/03/27 07:17:27;;;;;;;5.15;4.70;;;5.40;99.90;;;;;;4879767;29;20216;-68
2022/03/27 07:19:54;;;;;;;5.35;4.90;;;5.50;99.90;;;;;;4870471;29;20216;-67
2022/03/27 07:22:20;;;;;;;6.55;5.03;;;5.50;99.90;;;;;;4876417;29;20647;-68
2022/03/27 07:24:47;;;;;;;4.38;3.97;;;5.60;99.90;;;;;;4877925;29;20233;-67
2022/03/27 07:27:16;;;;;;;5.60;4.65;;;5.70;99.90;;;;;;4878798;29;20314;-67
2022/03/27 07:29:42;;;;;;;5.72;4.68;;;5.70;99.90;;;;;;4872884;29;20213;-68
2022/03/27 07:32:11;;;;;;;14.65;4.80;;;5.80;99.90;;;;;;4860310;29;20718;-68
2022/03/27 07:34:37;;;;;;;7.05;5.10;;;5.90;99.90;;;;;;4872958;29;20284;-68
2022/03/27 07:37:05;;;;;;;5.15;4.75;;;6.00;99.90;;;;;;4878259;29;20220;-68
2022/03/27 07:39:32;;;;;;;6.57;4.72;;;6.10;99.90;;;;;;4875024;29;20219;-69
2022/03/27 07:41:58;;;;;;;4.75;4.35;;;6.30;99.90;;;;;;4879450;29;20246;-68
2022/03/27 07:44:26;;;;;;;5.10;4.40;;;6.50;99.90;;;;;;4876096;29;20204;-69
2022/03/27 07:46:56;;;;;;;5.97;5.05;;;6.70;99.90;;;;;;4875382;29;20207;-69
2022/03/27 07:49:23;;;;;;;5.13;4.70;;;6.90;99.90;;;;;;4877854;29;20208;-69
2022/03/27 07:51:50;;;;;;;4.40;4.03;;;7.20;99.90;;;;;;4877393;29;20237;-68
2022/03/27 07:54:17;;;;;;;7.10;6.43;;;7.30;99.90;;;;;;4878030;29;20219;-68
2022/03/27 07:56:43;;;;;;;101.03;46.30;;;7.50;99.90;;;;;;4878273;29;20760;-69
2022/03/27 07:59:10;;;;;;;16.88;11.25;;;7.60;99.90;;;;;;4877234;29;20212;-69
2022/03/27 08:01:38;;;;;;;5.43;4.93;;;7.70;99.90;;;;;;4877624;29;20240;-69
2022/03/27 08:04:05;;;;;;;19.50;13.80;;;7.80;99.90;;;;;;4873929;29;20268;-66
2022/03/27 08:06:36;;;;;;;44.33;27.67;;;7.80;99.90;;;;;;4878512;29;20219;-68
2022/03/27 08:09:03;;;;;;;9.15;8.25;;;7.90;99.90;;;;;;4875109;29;20212;-67
2022/03/27 08:11:30;;;;;;;5.82;5.20;;;8.00;99.90;;;;;;4877196;29;20250;-67
2022/03/27 08:13:57;;;;;;;8.23;6.90;;;8.20;99.90;;;;;;4877232;29;20228;-67
2022/03/27 08:16:23;;;;;;;11.50;8.27;;;8.30;99.90;;;;;;4868624;29;20260;-66
2022/03/27 08:18:51;;;;;;;7.32;5.93;;;8.40;99.90;;;;;;4871889;29;20220;-69
2022/03/27 08:21:18;;;;;;;10.50;5.90;;;8.60;99.90;;;;;;4868407;29;20228;-68
2022/03/27 08:23:44;;;;;;;10.15;7.55;;;8.70;99.90;;;;;;4876233;29;20204;-68
2022/03/27 08:28:55;;;;;;;8.48;6.72;;;8.90;99.90;;;;;;4875064;29;20295;-69
2022/03/27 08:31:22;;;;;;;12.13;6.75;;;9.00;99.90;;;;;;4877000;29;20709;-69
2022/03/27 08:33:50;;;;;;;13.13;7.72;;;9.10;99.90;;;;;;4877506;29;20271;-69
2022/03/27 08:36:17;;;;;;;11.73;8.07;;;9.10;99.90;;;;;;4877202;29;20207;-69
2022/03/27 08:38:43;;;;;;;12.33;7.40;;;9.20;99.90;;;;;;4877482;29;20212;-68
2022/03/27 08:41:11;;;;;;;13.10;8.10;;;9.30;99.90;;;;;;4876519;29;20484;-68
2022/03/27 08:43:39;;;;;;;15.30;9.60;;;9.50;99.90;;;;;;4866058;29;20552;-69
2022/03/27 08:46:06;;;;;;;13.05;8.07;;;9.50;99.90;;;;;;4859304;29;20556;-68
2022/03/27 08:48:36;;;;;;;12.60;7.72;;;9.60;99.90;;;;;;4864682;29;20215;-67
2022/03/27 08:51:11;;;;;;;12.85;8.98;;;9.70;99.90;;;;;;4877158;29;20227;-68
2022/03/27 08:53:44;;;;;;;13.07;8.07;;;9.80;99.90;;;;;;4871214;29;20630;-68
2022/03/27 08:56:11;;;;;;;13.07;8.83;;;9.90;99.90;;;;;;4865078;29;20200;-69
2022/03/27 08:58:39;;;;;;;18.70;12.77;;;10.00;99.90;;;;;;4866920;29;20554;-67
2022/03/27 09:01:07;;;;;;;17.83;12.17;;;10.10;99.90;;;;;;4868546;29;20523;-67
2022/03/27 09:03:34;;;;;;;19.17;16.70;;;10.30;99.90;;;;;;4877162;29;20461;-67
2022/03/27 09:06:01;;;;;;;15.87;9.70;;;10.20;99.90;;;;;;4871202;29;20504;-69
2022/03/27 09:08:30;;;;;;;13.70;9.05;;;10.10;99.90;;;;;;4866796;29;20556;-70
2022/03/27 09:10:57;;;;;;;11.35;8.98;;;10.00;99.90;;;;;;4876497;29;20238;-67
2022/03/27 09:13:25;;;;;;;18.48;11.73;;;10.10;99.90;;;;;;4875092;29;20212;-68
2022/03/27 09:16:03;;;;;;;10.23;8.05;;;10.10;99.90;;;;;;4873136;29;20207;-68
2022/03/27 09:18:43;;;;;;;12.57;8.82;;;10.00;99.90;;;;;;4878251;29;20313;-68
2022/03/27 09:21:10;;;;;;;10.13;8.35;;;10.10;99.90;;;;;;4871638;29;20579;-68
2022/03/27 09:23:38;;;;;;;16.38;9.60;;;10.10;99.90;;;;;;4874436;29;20208;-68
2022/03/27 09:26:07;;;;;;;12.60;8.73;;;10.20;99.90;;;;;;4875267;29;20212;-69
2022/03/27 09:28:36;;;;;;;12.65;9.15;;;10.30;99.90;;;;;;4878982;29;20477;-68
2022/03/27 09:31:04;;;;;;;11.13;8.33;;;10.40;99.90;;;;;;4887056;29;20291;-67
2022/03/27 09:33:37;;;;;;;13.23;9.40;;;10.50;99.90;;;;;;4883183;29;20476;-68
2022/03/27 09:36:06;;;;;;;11.13;8.33;;;10.60;99.90;;;;;;4880255;29;20571;-68
2022/03/27 09:38:34;;;;;;;12.68;9.55;;;10.70;99.90;;;;;;4878977;29;20914;-68
2022/03/27 09:41:02;;;;;;;9.47;8.20;;;10.80;99.90;;;;;;4879546;29;20276;-66
2022/03/27 09:43:29;;;;;;;9.70;8.45;;;10.70;99.90;;;;;;4880751;29;20788;-67
2022/03/27 09:45:58;;;;;;;9.43;7.90;;;10.80;99.90;;;;;;4879197;29;20212;-69
2022/03/27 09:48:25;;;;;;;8.67;7.77;;;10.80;99.90;;;;;;4862009;29;20962;-68
2022/03/27 09:50:53;;;;;;;12.70;8.03;;;11.00;99.90;;;;;;4877849;29;20643;-67
2022/03/27 09:53:22;;;;;;;10.43;9.37;;;11.10;99.90;;;;;;4867339;29;20511;-68
2022/03/27 09:56:07;;;;;;;8.50;7.60;;;11.10;99.90;;;;;;4879304;29;20590;-68
2022/03/27 09:58:36;;;;;;;10.73;9.00;;;11.20;99.90;;;;;;4872907;29;20524;-68
2022/03/27 10:01:11;;;;;;;9.10;8.17;;;11.30;99.90;;;;;;4879269;29;20528;-68
2022/03/27 10:03:57;;;;;;;12.30;9.70;;;11.30;99.90;;;;;;4878544;29;20495;-69
2022/03/27 10:06:30;;;;;;;11.93;10.73;;;11.40;99.90;;;;;;4879761;29;20460;-68
2022/03/27 10:08:58;;;;;;;10.53;9.43;;;11.50;99.90;;;;;;4878958;29;21031;-68
2022/03/27 10:11:25;;;;;;;9.83;8.80;;;11.60;99.90;;;;;;4866854;29;20485;-69
2022/03/27 10:13:54;;;;;;;14.07;10.20;;;11.60;99.90;;;;;;4879138;29;20559;-68
2022/03/27 10:16:26;;;;;;;11.90;9.93;;;11.60;99.90;;;;;;4879978;29;20575;-70
2022/03/27 10:18:55;;;;;;;9.37;8.47;;;11.60;99.90;;;;;;4879840;29;20472;-69
2022/03/27 10:21:25;;;;;;;11.10;9.23;;;11.50;99.90;;;;;;4879041;29;20852;-67
2022/03/27 10:24:01;;;;;;;10.17;8.70;;;11.40;99.90;;;;;;4878912;29;20469;-68
2022/03/27 10:26:28;;;;;;;9.40;8.33;;;11.50;99.90;;;;;;4879471;29;20483;-68
2022/03/27 10:28:57;;;;;;;12.40;9.70;;;11.40;99.90;;;;;;4876091;29;20479;-67
2022/03/27 10:31:23;;;;;;;12.60;9.57;;;11.40;99.90;;;;;;4879463;29;20488;-69
2022/03/27 10:33:53;;;;;;;11.57;8.90;;;11.40;99.90;;;;;;4879283;29;20468;-69
2022/03/27 10:36:26;;;;;;;12.20;10.10;;;11.40;99.90;;;;;;4879302;29;20469;-68
2022/03/27 10:39:08;;;;;;;11.23;9.80;;;11.40;99.90;;;;;;4878285;29;20571;-70
2022/03/27 10:41:37;;;;;;;15.13;11.73;;;11.50;99.90;;;;;;4860514;29;20517;-67
2022/03/27 10:44:13;;;;;;;12.23;9.53;;;11.60;99.90;;;;;;4866233;29;20616;-69
2022/03/27 10:46:40;;;;;;;11.30;9.10;;;11.80;99.90;;;;;;4880051;29;20500;-69
2022/03/27 10:49:12;;;;;;;12.70;9.93;;;11.80;99.90;;;;;;4878787;29;20976;-68
2022/03/27 10:51:41;;;;;;;10.43;9.13;;;11.90;99.90;;;;;;4871507;29;20527;-69
2022/03/27 10:54:10;;;;;;;13.53;10.40;;;11.70;99.90;;;;;;4877593;29;20552;-69
2022/03/27 10:56:41;;;;;;;15.47;12.03;;;11.60;99.90;;;;;;4873363;29;20496;-69
2022/03/27 10:59:11;;;;;;;12.20;10.50;;;11.60;99.90;;;;;;4879127;29;20536;-69
2022/03/27 11:01:41;;;;;;;11.33;10.03;;;11.60;99.90;;;;;;4879375;29;20496;-67
2022/03/27 11:04:09;;;;;;;12.67;10.03;;;11.60;99.90;;;;;;4880767;29;20536;-67
2022/03/27 11:06:39;;;;;;;15.57;11.38;;;11.50;99.90;;;;;;4875655;29;20472;-69
2022/03/27 11:09:08;;;;;;;14.55;10.20;;;11.50;99.90;;;;;;4880362;29;20266;-68
2022/03/27 11:12:02;;;;;;;16.80;11.25;;;11.60;99.90;;;;;;4871253;29;20235;-69
2022/03/27 11:14:59;;;;;;;14.70;10.82;;;11.60;99.90;;;;;;4878863;29;20281;-69
2022/03/27 11:17:49;;;;;;;12.32;10.45;;;11.70;99.90;;;;;;4881125;29;20216;-69
2022/03/27 11:20:56;;;;;;;13.88;10.25;;;11.70;99.90;;;;;;4879259;29;20354;-68
2022/03/27 11:23:28;;;;;;;16.90;12.25;;;11.80;99.90;;;;;;4880427;29;20236;-69
2022/03/27 11:26:01;;;;;;;15.48;12.05;;;11.90;99.90;;;;;;4880986;29;20212;-69
2022/03/27 11:28:44;;;;;;;22.17;14.52;;;11.80;99.90;;;;;;4881562;29;20290;-68
2022/03/27 11:31:24;;;;;;;12.90;10.73;;;11.80;99.90;;;;;;4878045;29;20231;-68
2022/03/27 11:34:20;;;;;;;11.95;9.95;;;11.80;99.90;;;;;;4875049;29;20208;-68
2022/03/27 11:37:09;;;;;;;12.03;9.50;;;11.90;99.90;;;;;;4884774;29;20245;-69
2022/03/27 11:39:38;;;;;;;11.48;9.52;;;11.90;99.90;;;;;;4882626;29;20473;-67
2022/03/27 11:42:34;;;;;;;13.85;10.27;;;12.00;99.90;;;;;;4887070;29;20307;-68
2022/03/27 11:45:37;;;;;;;11.77;10.57;;;12.10;99.90;;;;;;4880073;29;20645;-69
2022/03/27 11:48:16;;;;;;;15.23;10.05;;;12.20;99.90;;;;;;4849121;29;20275;-68
2022/03/27 11:50:44;;;;;;;13.75;12.00;;;12.30;99.90;;;;;;4878225;29;20224;-67
2022/03/27 11:53:11;;;;;;;13.10;10.50;;;12.40;99.90;;;;;;4880020;29;20636;-68
2022/03/27 11:55:39;;;;;;;13.80;9.90;;;12.40;99.90;;;;;;4876870;29;20575;-68
2022/03/27 11:58:07;;;;;;;10.47;9.37;;;12.50;99.90;;;;;;4880350;29;20544;-66
2022/03/27 12:00:38;;;;;;;12.50;10.13;;;12.50;99.90;;;;;;4879727;29;20472;-69
2022/03/27 12:03:14;;;;;;;13.10;11.73;;;12.60;99.90;;;;;;4880602;29;20490;-67
2022/03/27 12:05:42;;;;;;;27.67;20.70;;;12.70;99.90;;;;;;4880577;29;20460;-68
2022/03/27 12:08:15;;;;;;;10.43;9.40;;;12.70;99.90;;;;;;4879722;29;20539;-68
2022/03/27 12:10:43;;;;;;;11.00;8.67;;;12.70;99.90;;;;;;4879089;29;20515;-67
2022/03/27 12:13:11;;;;;;;17.10;12.87;;;12.80;99.90;;;;;;4877620;29;20861;-69
2022/03/27 12:15:39;;;;;;;9.97;7.37;;;12.80;99.90;;;;;;4880235;29;20492;-68
2022/03/27 12:18:07;;;;;;;10.00;8.93;;;12.80;99.90;;;;;;4880594;29;20471;-68
2022/03/27 12:20:45;;;;;;;9.90;7.23;;;12.90;99.90;;;;;;4879132;29;20508;-68
2022/03/27 12:23:22;;;;;;;11.87;8.17;;;12.90;99.90;;;;;;4879210;29;20484;-69
2022/03/27 12:26:01;;;;;;;8.53;7.53;;;13.00;99.90;;;;;;4879420;29;20543;-67
2022/03/27 12:31:24;;;;;;;10.60;7.83;;;13.20;99.90;;;;;;4878132;29;20475;-69
2022/03/27 12:33:53;;;;;;;9.70;7.97;;;13.20;99.90;;;;;;4880561;29;20472;-69
2022/03/27 12:36:20;;;;;;;10.67;8.83;;;13.30;99.90;;;;;;4879116;29;20491;-67
2022/03/27 12:38:48;;;;;;;7.80;6.90;;;13.50;99.90;;;;;;4878561;29;20476;-67
2022/03/27 12:41:33;;;;;;;35.63;27.73;;;13.60;99.90;;;;;;4879380;29;20571;-68
2022/03/27 12:44:01;;;;;;;10.73;8.80;;;13.80;99.90;;;;;;4878923;29;20580;-67
2022/03/27 12:46:28;;;;;;;13.13;8.50;;;13.80;99.90;;;;;;4879628;29;20472;-68
2022/03/27 12:48:59;;;;;;;9.87;8.07;;;13.90;99.90;;;;;;4879382;29;20464;-69
2022/03/27 12:51:27;;;;;;;9.80;8.80;;;13.90;99.90;;;;;;4879043;29;20484;-68
2022/03/27 12:54:06;;;;;;;10.53;9.30;;;13.80;99.90;;;;;;4879439;29;20544;-68
2022/03/27 12:56:33;;;;;;;9.87;8.90;;;13.80;99.90;;;;;;4879891;29;20484;-68
2022/03/27 12:59:19;;;;;;;8.73;7.53;;;13.80;99.90;;;;;;4872885;29;20628;-68
2022/03/27 13:01:46;;;;;;;10.20;7.67;;;13.80;99.90;;;;;;4871448;29;20716;-68
2022/03/27 13:04:13;;;;;;;10.47;8.63;;;13.90;99.90;;;;;;4877174;29;20487;-69
2022/03/27 13:06:43;;;;;;;9.00;8.10;;;13.90;99.90;;;;;;4877952;29;20548;-68
2022/03/27 13:09:20;;;;;;;9.63;8.20;;;13.80;99.90;;;;;;4879369;29;20468;-69
2022/03/27 13:11:49;;;;;;;7.70;6.90;;;13.80;99.90;;;;;;4879706;29;20488;-68
2022/03/27 13:14:17;;;;;;;10.27;6.33;;;13.80;99.90;;;;;;4879362;29;20559;-68
2022/03/27 13:16:45;;;;;;;11.50;7.07;;;13.80;99.90;;;;;;4878893;29;20528;-68
2022/03/27 13:19:13;;;;;;;7.80;6.70;;;13.90;99.90;;;;;;4877541;29;20480;-68
2022/03/27 13:21:42;;;;;;;5.63;5.10;;;13.90;99.90;;;;;;4875889;29;20872;-68
2022/03/27 13:24:12;;;;;;;8.37;5.20;;;14.00;99.90;;;;;;4879211;29;20469;-67
2022/03/27 13:26:40;;;;;;;4.40;4.00;;;14.00;99.90;;;;;;4879401;29;20460;-69
2022/03/27 13:29:07;;;;;;;5.20;4.70;;;14.00;99.90;;;;;;4880409;29;20504;-67
2022/03/27 13:31:36;;;;;;;9.60;6.50;;;14.00;99.90;;;;;;4881781;29;20493;-68
2022/03/27 13:34:04;;;;;;;14.27;7.77;;;14.00;99.90;;;;;;4890722;29;20500;-68
2022/03/27 13:36:33;;;;;;;13.90;9.27;;;14.00;99.90;;;;;;4890464;29;20472;-69
2022/03/27 13:39:00;;;;;;;13.03;8.10;;;14.00;99.90;;;;;;4882271;29;20479;-69
2022/03/27 13:44:17;;;;;;;7.63;5.97;;;14.10;99.90;;;;;;4879175;29;20456;-68
2022/03/27 13:46:43;;;;;;;4.83;4.40;;;14.10;99.90;;;;;;4879170;29;20551;-68
2022/03/27 13:49:10;;;;;;;11.23;10.27;;;14.10;99.90;;;;;;4879666;29;20479;-68
2022/03/27 13:51:37;;;;;;;5.40;4.20;;;14.20;99.90;;;;;;4878997;29;20492;-67
2022/03/27 13:54:04;;;;;;;4.90;4.37;;;14.20;99.90;;;;;;4879245;29;20521;-69
2022/03/27 13:56:33;;;;;;;4.93;4.53;;;14.20;99.90;;;;;;4878271;29;20488;-69
2022/03/27 13:59:00;;;;;;;4.83;4.53;;;14.20;99.90;;;;;;4878084;29;20532;-67
2022/03/27 14:01:26;;;;;;;5.10;4.70;;;14.20;99.90;;;;;;4877321;29;20504;-67
2022/03/27 14:03:53;;;;;;;5.30;4.90;;;14.20;99.90;;;;;;4878353;29;20505;-70
2022/03/27 14:06:20;;;;;;;6.10;5.50;;;14.20;99.90;;;;;;4878237;29;20464;-67
2022/03/27 14:08:46;;;;;;;8.53;5.40;;;14.30;99.90;;;;;;4877902;29;20532;-69
2022/03/27 14:11:13;;;;;;;7.53;5.53;;;14.20;99.90;;;;;;4877310;29;20492;-68
2022/03/27 14:13:42;;;;;;;6.50;5.97;;;14.30;99.90;;;;;;4877918;29;20930;-68
2022/03/27 14:16:09;;;;;;;6.50;4.73;;;14.40;99.90;;;;;;4877643;29;20509;-69
2022/03/27 14:18:36;;;;;;;7.37;6.57;;;14.40;99.90;;;;;;4882562;29;20484;-66
2022/03/27 14:21:03;;;;;;;6.60;5.33;;;14.50;99.90;;;;;;4880117;29;20568;-68
2022/03/27 14:23:30;;;;;;;9.10;6.17;;;14.50;99.90;;;;;;4880589;29;20476;-70
2022/03/27 14:25:57;;;;;;;8.00;7.07;;;14.50;99.90;;;;;;4877721;29;20476;-69
2022/03/27 14:28:25;;;;;;;6.40;5.87;;;14.60;99.90;;;;;;4880118;29;20511;-67
2022/03/27 14:30:53;;;;;;;6.47;5.43;;;14.50;99.90;;;;;;4879095;29;20484;-68
2022/03/27 14:33:19;;;;;;;7.93;4.07;;;14.50;99.90;;;;;;4872603;29;20525;-69
2022/03/27 14:35:46;;;;;;;5.27;4.23;;;14.50;99.90;;;;;;4868122;29;20758;-69
2022/03/27 14:38:13;;;;;;;5.47;5.00;;;14.50;99.90;;;;;;4877919;29;20471;-69
2022/03/27 14:40:41;;;;;;;6.10;4.60;;;14.60;99.90;;;;;;4879039;29;20507;-68
2022/03/27 14:43:07;;;;;;;4.87;4.10;;;14.50;99.90;;;;;;4880770;29;20471;-69
2022/03/27 14:45:34;;;;;;;4.00;3.67;;;14.50;99.90;;;;;;4878743;29;20516;-68
2022/03/27 14:48:02;;;;;;;5.77;5.07;;;14.60;99.90;;;;;;4879247;29;20483;-68
2022/03/27 14:50:29;;;;;;;7.07;6.40;;;14.60;99.90;;;;;;4873808;29;20457;-68
2022/03/27 14:52:56;;;;;;;3.70;3.40;;;14.50;99.90;;;;;;4861239;29;21034;-68
2022/03/27 14:58:08;;;;;;;4.57;3.70;;;14.50;99.90;;;;;;4879561;29;20452;-69
2022/03/27 15:00:36;;;;;;;3.80;3.57;;;14.50;99.90;;;;;;4871693;29;20491;-67
2022/03/27 15:03:06;;;;;;;4.40;3.83;;;14.50;99.90;;;;;;4880220;29;20468;-70
2022/03/27 15:05:33;;;;;;;3.10;2.90;;;14.50;99.90;;;;;;4879552;29;20460;-69
2022/03/27 15:08:02;;;;;;;5.10;4.23;;;14.50;99.90;;;;;;4880657;29;20600;-70
2022/03/27 15:10:29;;;;;;;5.03;4.23;;;14.50;99.90;;;;;;4880600;29;20476;-69
2022/03/27 15:12:55;;;;;;;5.20;4.13;;;14.50;99.90;;;;;;4878865;29;20528;-69
2022/03/27 15:15:22;;;;;;;3.90;3.60;;;14.40;99.90;;;;;;4877884;29;20985;-68
2022/03/27 15:17:49;;;;;;;5.00;4.60;;;14.40;99.90;;;;;;4878669;29;20496;-69
2022/03/27 15:20:17;;;;;;;4.00;3.80;;;14.50;99.90;;;;;;4877524;29;20464;-68
2022/03/27 15:22:44;;;;;;;5.13;4.17;;;14.40;99.90;;;;;;4877504;29;20478;-68
2022/03/27 15:25:12;;;;;;;5.80;4.30;;;14.40;99.90;;;;;;4877511;29;20469;-69
2022/03/27 15:27:39;;;;;;;5.17;4.30;;;14.40;99.90;;;;;;4878347;29;20524;-69
2022/03/27 15:30:07;;;;;;;3.90;3.70;;;14.40;99.90;;;;;;4874774;29;20540;-69
2022/03/27 15:32:35;;;;;;;4.20;3.90;;;14.40;99.90;;;;;;4878228;29;20559;-68
2022/03/27 15:35:04;;;;;;;4.47;4.07;;;14.30;99.90;;;;;;4880418;29;20465;-67
2022/03/27 15:37:33;;;;;;;4.57;4.20;;;14.40;99.90;;;;;;4881318;29;20488;-68
2022/03/27 15:40:00;;;;;;;6.53;4.60;;;14.30;99.90;;;;;;4879732;29;20532;-67
2022/03/27 15:42:26;;;;;;;5.20;4.70;;;14.30;99.90;;;;;;4880548;29;20492;-68
2022/03/27 15:44:53;;;;;;;4.20;3.80;;;14.30;99.90;;;;;;4877550;29;20473;-68
2022/03/27 15:47:20;;;;;;;5.50;5.10;;;14.30;99.90;;;;;;4874837;29;21159;-68
2022/03/27 15:49:46;;;;;;;4.60;4.30;;;14.30;99.90;;;;;;4872643;29;20994;-68
2022/03/27 15:52:13;;;;;;;3.33;3.13;;;14.30;99.90;;;;;;4875006;29;20480;-67
2022/03/27 15:54:41;;;;;;;3.67;3.40;;;14.20;99.90;;;;;;4862833;29;20483;-67
2022/03/27 15:57:08;;;;;;;4.63;4.23;;;14.20;99.90;;;;;;4865715;29;20653;-66
2022/03/27 15:59:34;;;;;;;5.80;4.30;;;14.20;99.90;;;;;;4875679;29;20481;-67
2022/03/27 16:02:01;;;;;;;6.00;4.80;;;14.20;99.90;;;;;;4874766;29;20607;-67
2022/03/27 16:04:28;;;;;;;4.03;3.70;;;14.20;99.90;;;;;;4877627;29;20484;-69
2022/03/27 16:06:54;;;;;;;4.67;4.27;;;14.20;99.90;;;;;;4877350;29;20460;-69
2022/03/27 16:09:22;;;;;;;5.17;3.83;;;14.20;99.90;;;;;;4878042;29;20471;-68
2022/03/27 16:11:50;;;;;;;7.30;3.93;;;14.20;99.90;;;;;;4879589;29;20492;-67
2022/03/27 16:14:17;;;;;;;6.93;4.30;;;14.20;99.90;;;;;;4875822;29;20505;-67
2022/03/27 16:16:45;;;;;;;6.27;4.43;;;14.20;99.90;;;;;;4876765;29;20559;-67
2022/03/27 16:19:13;;;;;;;3.73;3.43;;;14.20;99.90;;;;;;4877437;29;20536;-67
2022/03/27 16:21:40;;;;;;;3.90;3.70;;;14.20;99.90;;;;;;4875903;29;20488;-66
2022/03/27 16:24:07;;;;;;;4.13;3.80;;;14.10;99.90;;;;;;4876608;29;20544;-68
2022/03/27 16:26:34;;;;;;;5.40;4.90;;;14.10;99.90;;;;;;4873260;29;20567;-68
2022/03/27 16:29:02;;;;;;;3.60;3.30;;;14.10;99.90;;;;;;4871609;29;20528;-67
2022/03/27 16:31:28;;;;;;;6.00;3.90;;;14.00;99.90;;;;;;4875805;29;20982;-68
2022/03/27 16:33:55;;;;;;;3.50;3.20;;;14.00;99.90;;;;;;4876688;29;20472;-67
2022/03/27 16:36:21;;;;;;;4.50;4.20;;;14.00;99.90;;;;;;4877545;29;20505;-69
2022/03/27 16:38:48;;;;;;;6.10;4.60;;;13.90;99.90;;;;;;4873040;29;20522;-68
2022/03/27 16:41:15;;;;;;;3.50;3.20;;;13.90;99.90;;;;;;4871957;29;20851;-66
2022/03/27 16:43:41;;;;;;;4.83;4.30;;;13.90;99.90;;;;;;4874951;29;20473;-66
2022/03/27 16:46:10;;;;;;;6.13;5.00;;;13.80;99.90;;;;;;4877038;29;20540;-66
2022/03/27 16:48:36;;;;;;;4.73;4.33;;;13.80;99.90;;;;;;4875724;29;20477;-66
2022/03/27 16:51:03;;;;;;;4.13;3.87;;;13.80;99.90;;;;;;4875695;29;20488;-67
2022/03/27 16:53:30;;;;;;;4.77;4.37;;;13.70;99.90;;;;;;4876334;29;20801;-68
2022/03/27 16:55:56;;;;;;;4.20;3.80;;;13.70;99.90;;;;;;4876120;29;20499;-68
2022/03/27 16:58:23;;;;;;;5.33;4.93;;;13.70;99.90;;;;;;4877169;29;20559;-68
2022/03/27 17:00:50;;;;;;;4.80;4.40;;;13.60;99.90;;;;;;4875302;29;20855;-68
2022/03/27 17:03:19;;;;;;;6.17;5.67;;;13.60;99.90;;;;;;4874659;29;20480;-68
2022/03/27 17:05:48;;;;;;;7.40;6.70;;;13.50;99.90;;;;;;4876972;29;20459;-68
2022/03/27 17:08:15;;;;;;;5.07;4.60;;;13.40;99.90;;;;;;4868306;29;20569;-68
2022/03/27 17:10:42;;;;;;;7.67;5.53;;;13.40;99.90;;;;;;4868280;29;20809;-67
2022/03/27 17:13:08;;;;;;;8.30;5.07;;;13.30;99.90;;;;;;4874407;29;20468;-69